sensor_id;sensor_type;location;lat;lon;timestamp;P1;durP1;ratioP1;P2;durP2;ratioP2
11279;SDS011;5696;50.928;6.960;2022-07-30T05:35:40;9.88;;;7.93;;
11279;SDS011;5696;50.928;6.960;2022-07-30T05:38:06;8.32;;;7.50;;
11279;SDS011;5696;50.928;6.960;2022-07-30T05:40:33;9.50;;;7.80;;
11279;SDS011;5696;50.928;6.960;2022-07-30T05:42:59;9.10;;;8.20;;
11279;SDS011;5696;50.928;6.960;2022-07-30T05:45:25;14.10;;;7.93;;
11279;SDS011;5696;50.928;6.960;2022-07-30T05:47:50;9.18;;;8.00;;
11279;SDS011;5696;50.928;6.960;2022-07-30T05:50:27;11.55;;;8.82;;
11279;SDS011;5696;50.928;6.960;2022-07-30T05:52:53;14.60;;;8.82;;
11279;SDS011;5696;50.928;6.960;2022-07-30T05:55:20;8.95;;;7.72;;
11279;SDS011;5696;50.928;6.960;2022-07-30T05:57:45;10.93;;;7.97;;
11279;SDS011;5696;50.928;6.960;2022-07-30T06:00:11;12.98;;;9.18;;
11279;SDS011;5696;50.928;6.960;2022-07-30T06:02:37;11.02;;;8.77;;
11279;SDS011;5696;50.928;6.960;2022-07-30T06:05:06;11.25;;;8.73;;
11279;SDS011;5696;50.928;6.960;2022-07-30T06:07:32;14.88;;;9.45;;
11279;SDS011;5696;50.928;6.960;2022-07-30T06:09:57;11.13;;;8.90;;
11279;SDS011;5696;50.928;6.960;2022-07-30T06:12:25;12.25;;;9.40;;
11279;SDS011;5696;50.928;6.960;2022-07-30T06:14:51;12.27;;;9.40;;
11279;SDS011;5696;50.928;6.960;2022-07-30T06:17:17;11.75;;;9.75;;
11279;SDS011;5696;50.928;6.960;2022-07-30T06:19:42;11.32;;;10.15;;
11279;SDS011;5696;50.928;6.960;2022-07-30T06:22:08;11.82;;;10.63;;
11279;SDS011;5696;50.928;6.960;2022-07-30T06:24:33;19.73;;;11.77;;
11279;SDS011;5696;50.928;6.960;2022-07-30T06:26:59;11.82;;;10.63;;
11279;SDS011;5696;50.928;6.960;2022-07-30T06:29:25;14.02;;;11.05;;
11279;SDS011;5696;50.928;6.960;2022-07-30T06:31:51;13.77;;;11.50;;
11279;SDS011;5696;50.928;6.960;2022-07-30T06:34:16;18.23;;;15.38;;
11279;SDS011;5696;50.928;6.960;2022-07-30T06:36:42;20.48;;;18.35;;
11279;SDS011;5696;50.928;6.960;2022-07-30T06:39:07;22.92;;;20.52;;
11279;SDS011;5696;50.928;6.960;2022-07-30T06:41:33;21.65;;;19.35;;
11279;SDS011;5696;50.928;6.960;2022-07-30T06:43:59;27.80;;;22.35;;
11279;SDS011;5696;50.928;6.960;2022-07-30T06:46:24;23.50;;;21.23;;
11279;SDS011;5696;50.928;6.960;2022-07-30T06:48:50;26.40;;;23.60;;
11279;SDS011;5696;50.928;6.960;2022-07-30T06:51:15;23.70;;;20.83;;
11279;SDS011;5696;50.928;6.960;2022-07-30T06:53:41;22.33;;;20.02;;
11279;SDS011;5696;50.928;6.960;2022-07-30T06:56:09;23.77;;;20.85;;
11279;SDS011;5696;50.928;6.960;2022-07-30T06:58:36;26.55;;;23.65;;
11279;SDS011;5696;50.928;6.960;2022-07-30T07:01:01;24.70;;;22.08;;
11279;SDS011;5696;50.928;6.960;2022-07-30T07:03:27;24.70;;;22.05;;
11279;SDS011;5696;50.928;6.960;2022-07-30T07:05:53;25.10;;;22.50;;
11279;SDS011;5696;50.928;6.960;2022-07-30T07:08:18;23.02;;;20.73;;
11279;SDS011;5696;50.928;6.960;2022-07-30T07:10:44;22.55;;;20.08;;
11279;SDS011;5696;50.928;6.960;2022-07-30T07:13:10;24.23;;;21.90;;
11279;SDS011;5696;50.928;6.960;2022-07-30T07:15:35;25.27;;;21.42;;
11279;SDS011;5696;50.928;6.960;2022-07-30T07:18:01;23.27;;;20.85;;
11279;SDS011;5696;50.928;6.960;2022-07-30T07:20:27;27.10;;;22.13;;
11279;SDS011;5696;50.928;6.960;2022-07-30T07:22:52;26.30;;;23.70;;
11279;SDS011;5696;50.928;6.960;2022-07-30T07:25:18;26.63;;;23.30;;
11279;SDS011;5696;50.928;6.960;2022-07-30T07:27:44;22.20;;;20.10;;
11279;SDS011;5696;50.928;6.960;2022-07-30T07:30:09;23.60;;;19.85;;
11279;SDS011;5696;50.928;6.960;2022-07-30T07:32:35;21.15;;;18.95;;
11279;SDS011;5696;50.928;6.960;2022-07-30T07:35:01;20.75;;;18.77;;
11279;SDS011;5696;50.928;6.960;2022-07-30T07:37:27;21.88;;;19.50;;
11279;SDS011;5696;50.928;6.960;2022-07-30T07:39:53;21.50;;;19.20;;
11279;SDS011;5696;50.928;6.960;2022-07-30T07:42:18;20.52;;;17.92;;
11279;SDS011;5696;50.928;6.960;2022-07-30T07:44:44;19.83;;;16.45;;
11279;SDS011;5696;50.928;6.960;2022-07-30T07:47:10;24.52;;;17.92;;
11279;SDS011;5696;50.928;6.960;2022-07-30T07:49:35;21.17;;;19.17;;
11279;SDS011;5696;50.928;6.960;2022-07-30T07:52:01;21.63;;;19.13;;
11279;SDS011;5696;50.928;6.960;2022-07-30T07:54:27;20.45;;;17.13;;
11279;SDS011;5696;50.928;6.960;2022-07-30T07:56:53;18.52;;;15.95;;
11279;SDS011;5696;50.928;6.960;2022-07-30T07:59:21;18.80;;;16.80;;
11279;SDS011;5696;50.928;6.960;2022-07-30T08:01:47;21.30;;;17.88;;
11279;SDS011;5696;50.928;6.960;2022-07-30T08:04:13;22.17;;;18.20;;
11279;SDS011;5696;50.928;6.960;2022-07-30T08:06:39;20.60;;;16.85;;
11279;SDS011;5696;50.928;6.960;2022-07-30T08:09:04;17.83;;;15.95;;
11279;SDS011;5696;50.928;6.960;2022-07-30T08:11:30;18.05;;;16.25;;
11279;SDS011;5696;50.928;6.960;2022-07-30T08:13:56;18.00;;;16.13;;
11279;SDS011;5696;50.928;6.960;2022-07-30T08:16:21;18.83;;;16.85;;
11279;SDS011;5696;50.928;6.960;2022-07-30T08:18:47;20.25;;;16.35;;
11279;SDS011;5696;50.928;6.960;2022-07-30T08:21:13;17.40;;;14.88;;
11279;SDS011;5696;50.928;6.960;2022-07-30T08:23:39;15.15;;;13.32;;
11279;SDS011;5696;50.928;6.960;2022-07-30T08:26:05;17.58;;;14.23;;
11279;SDS011;5696;50.928;6.960;2022-07-30T08:28:31;15.40;;;13.80;;
11279;SDS011;5696;50.928;6.960;2022-07-30T08:30:58;17.83;;;14.88;;
11279;SDS011;5696;50.928;6.960;2022-07-30T08:33:23;18.77;;;16.23;;
11279;SDS011;5696;50.928;6.960;2022-07-30T08:35:49;16.40;;;14.60;;
11279;SDS011;5696;50.928;6.960;2022-07-30T08:38:14;17.30;;;15.45;;
11279;SDS011;5696;50.928;6.960;2022-07-30T08:40:40;17.13;;;15.43;;
11279;SDS011;5696;50.928;6.960;2022-07-30T08:43:06;17.80;;;15.05;;
11279;SDS011;5696;50.928;6.960;2022-07-30T08:45:32;15.07;;;13.50;;
11279;SDS011;5696;50.928;6.960;2022-07-30T08:47:59;16.27;;;12.55;;
11279;SDS011;5696;50.928;6.960;2022-07-30T08:50:25;14.00;;;12.65;;
11279;SDS011;5696;50.928;6.960;2022-07-30T08:52:52;16.55;;;13.52;;
11279;SDS011;5696;50.928;6.960;2022-07-30T08:55:23;14.15;;;12.65;;
11279;SDS011;5696;50.928;6.960;2022-07-30T08:57:50;13.98;;;12.57;;
11279;SDS011;5696;50.928;6.960;2022-07-30T09:00:16;13.02;;;11.63;;
11279;SDS011;5696;50.928;6.960;2022-07-30T09:02:43;12.77;;;10.65;;
11279;SDS011;5696;50.928;6.960;2022-07-30T09:05:09;14.60;;;12.93;;
11279;SDS011;5696;50.928;6.960;2022-07-30T09:07:36;14.25;;;11.07;;
11279;SDS011;5696;50.928;6.960;2022-07-30T09:10:03;14.10;;;11.88;;
11279;SDS011;5696;50.928;6.960;2022-07-30T09:15:13;14.57;;;12.60;;
11279;SDS011;5696;50.928;6.960;2022-07-30T09:17:52;15.68;;;11.32;;
11279;SDS011;5696;50.928;6.960;2022-07-30T09:20:24;13.75;;;11.25;;
11279;SDS011;5696;50.928;6.960;2022-07-30T09:22:52;14.95;;;10.25;;
11279;SDS011;5696;50.928;6.960;2022-07-30T09:28:04;14.07;;;12.57;;
11279;SDS011;5696;50.928;6.960;2022-07-30T09:30:54;14.88;;;12.90;;
11279;SDS011;5696;50.928;6.960;2022-07-30T09:33:39;12.70;;;11.35;;
11279;SDS011;5696;50.928;6.960;2022-07-30T09:36:10;13.50;;;11.40;;
11279;SDS011;5696;50.928;6.960;2022-07-30T09:41:11;13.10;;;11.38;;
11279;SDS011;5696;50.928;6.960;2022-07-30T09:43:45;12.48;;;11.30;;
11279;SDS011;5696;50.928;6.960;2022-07-30T09:46:15;13.00;;;11.52;;
11279;SDS011;5696;50.928;6.960;2022-07-30T09:48:41;12.65;;;11.35;;
11279;SDS011;5696;50.928;6.960;2022-07-30T09:51:09;11.70;;;10.52;;
11279;SDS011;5696;50.928;6.960;2022-07-30T09:53:35;13.05;;;10.95;;
11279;SDS011;5696;50.928;6.960;2022-07-30T09:56:23;14.02;;;11.18;;
11279;SDS011;5696;50.928;6.960;2022-07-30T09:58:50;12.65;;;11.18;;
11279;SDS011;5696;50.928;6.960;2022-07-30T10:01:16;12.73;;;11.40;;
11279;SDS011;5696;50.928;6.960;2022-07-30T10:03:42;13.48;;;10.93;;
11279;SDS011;5696;50.928;6.960;2022-07-30T10:06:08;12.05;;;10.85;;
11279;SDS011;5696;50.928;6.960;2022-07-30T10:08:43;12.65;;;10.82;;
11279;SDS011;5696;50.928;6.960;2022-07-30T10:11:12;12.73;;;11.43;;
11279;SDS011;5696;50.928;6.960;2022-07-30T10:13:40;11.52;;;9.93;;
11279;SDS011;5696;50.928;6.960;2022-07-30T10:16:07;12.88;;;10.50;;
11279;SDS011;5696;50.928;6.960;2022-07-30T10:18:33;11.45;;;10.38;;
11279;SDS011;5696;50.928;6.960;2022-07-30T10:21:00;9.68;;;8.10;;
11279;SDS011;5696;50.928;6.960;2022-07-30T10:23:27;10.48;;;9.20;;
11279;SDS011;5696;50.928;6.960;2022-07-30T10:25:58;10.88;;;8.75;;
11279;SDS011;5696;50.928;6.960;2022-07-30T10:28:25;12.32;;;9.48;;
11279;SDS011;5696;50.928;6.960;2022-07-30T10:30:53;10.38;;;7.95;;
11279;SDS011;5696;50.928;6.960;2022-07-30T10:33:22;9.52;;;8.63;;
11279;SDS011;5696;50.928;6.960;2022-07-30T10:35:51;9.43;;;7.03;;
11279;SDS011;5696;50.928;6.960;2022-07-30T10:38:18;9.18;;;7.80;;
11279;SDS011;5696;50.928;6.960;2022-07-30T10:40:48;8.75;;;7.95;;
11279;SDS011;5696;50.928;6.960;2022-07-30T10:46:22;6.72;;;5.80;;
11279;SDS011;5696;50.928;6.960;2022-07-30T10:49:30;5.50;;;4.95;;
11279;SDS011;5696;50.928;6.960;2022-07-30T10:51:56;9.23;;;6.28;;
11279;SDS011;5696;50.928;6.960;2022-07-30T10:54:41;10.50;;;7.55;;
11279;SDS011;5696;50.928;6.960;2022-07-30T10:57:12;9.23;;;5.45;;
11279;SDS011;5696;50.928;6.960;2022-07-30T11:02:25;6.40;;;4.32;;
11279;SDS011;5696;50.928;6.960;2022-07-30T11:07:42;5.72;;;5.10;;
11279;SDS011;5696;50.928;6.960;2022-07-30T11:13:04;6.40;;;4.57;;
11279;SDS011;5696;50.928;6.960;2022-07-30T11:18:26;7.95;;;5.55;;
11279;SDS011;5696;50.928;6.960;2022-07-30T11:23:44;6.35;;;5.18;;
11279;SDS011;5696;50.928;6.960;2022-07-30T11:26:11;9.25;;;4.80;;
11279;SDS011;5696;50.928;6.960;2022-07-30T11:35:10;7.65;;;4.70;;
11279;SDS011;5696;50.928;6.960;2022-07-30T11:40:33;8.73;;;5.53;;
11279;SDS011;5696;50.928;6.960;2022-07-30T11:51:48;7.03;;;4.88;;
11279;SDS011;5696;50.928;6.960;2022-07-30T11:54:15;5.53;;;4.97;;
11279;SDS011;5696;50.928;6.960;2022-07-30T11:56:47;5.55;;;4.72;;
11279;SDS011;5696;50.928;6.960;2022-07-30T11:59:18;6.05;;;4.60;;
11279;SDS011;5696;50.928;6.960;2022-07-30T12:01:47;9.13;;;5.03;;
11279;SDS011;5696;50.928;6.960;2022-07-30T12:04:14;5.40;;;4.30;;
11279;SDS011;5696;50.928;6.960;2022-07-30T12:06:46;7.22;;;4.07;;
11279;SDS011;5696;50.928;6.960;2022-07-30T12:09:19;5.78;;;4.60;;
11279;SDS011;5696;50.928;6.960;2022-07-30T12:11:49;5.72;;;4.30;;
11279;SDS011;5696;50.928;6.960;2022-07-30T12:14:14;6.40;;;3.78;;
11279;SDS011;5696;50.928;6.960;2022-07-30T12:16:41;6.28;;;4.10;;
11279;SDS011;5696;50.928;6.960;2022-07-30T12:19:13;6.78;;;5.55;;
11279;SDS011;5696;50.928;6.960;2022-07-30T12:21:39;4.93;;;4.18;;
11279;SDS011;5696;50.928;6.960;2022-07-30T12:24:05;8.00;;;4.32;;
11279;SDS011;5696;50.928;6.960;2022-07-30T12:26:37;4.57;;;3.90;;
11279;SDS011;5696;50.928;6.960;2022-07-30T12:29:06;4.45;;;3.20;;
11279;SDS011;5696;50.928;6.960;2022-07-30T12:31:37;5.07;;;3.40;;
11279;SDS011;5696;50.928;6.960;2022-07-30T12:34:04;6.32;;;3.83;;
11279;SDS011;5696;50.928;6.960;2022-07-30T12:36:43;5.93;;;3.78;;
11279;SDS011;5696;50.928;6.960;2022-07-30T12:39:08;5.63;;;3.72;;
11279;SDS011;5696;50.928;6.960;2022-07-30T12:41:48;5.68;;;3.30;;
11279;SDS011;5696;50.928;6.960;2022-07-30T12:44:34;5.95;;;3.50;;
11279;SDS011;5696;50.928;6.960;2022-07-30T12:47:00;3.58;;;3.28;;
11279;SDS011;5696;50.928;6.960;2022-07-30T12:49:30;3.90;;;3.05;;
11279;SDS011;5696;50.928;6.960;2022-07-30T12:51:56;4.45;;;3.28;;
11279;SDS011;5696;50.928;6.960;2022-07-30T12:54:21;4.13;;;3.67;;
11279;SDS011;5696;50.928;6.960;2022-07-30T12:59:23;4.70;;;2.85;;
11279;SDS011;5696;50.928;6.960;2022-07-30T13:01:50;6.18;;;3.33;;
11279;SDS011;5696;50.928;6.960;2022-07-30T13:04:17;5.45;;;2.70;;
11279;SDS011;5696;50.928;6.960;2022-07-30T13:06:43;2.97;;;2.78;;
11279;SDS011;5696;50.928;6.960;2022-07-30T13:09:31;7.40;;;2.88;;
11279;SDS011;5696;50.928;6.960;2022-07-30T13:11:56;4.05;;;3.05;;
11279;SDS011;5696;50.928;6.960;2022-07-30T13:14:22;5.00;;;2.88;;
11279;SDS011;5696;50.928;6.960;2022-07-30T13:16:52;3.97;;;3.45;;
11279;SDS011;5696;50.928;6.960;2022-07-30T13:19:22;5.60;;;3.13;;
11279;SDS011;5696;50.928;6.960;2022-07-30T13:21:48;3.38;;;2.95;;
11279;SDS011;5696;50.928;6.960;2022-07-30T13:24:15;3.55;;;3.20;;
11279;SDS011;5696;50.928;6.960;2022-07-30T13:26:42;5.18;;;3.10;;
11279;SDS011;5696;50.928;6.960;2022-07-30T13:29:08;3.50;;;3.20;;
11279;SDS011;5696;50.928;6.960;2022-07-30T13:31:34;3.95;;;2.72;;
11279;SDS011;5696;50.928;6.960;2022-07-30T13:34:00;3.45;;;2.53;;
11279;SDS011;5696;50.928;6.960;2022-07-30T13:36:26;3.50;;;3.20;;
11279;SDS011;5696;50.928;6.960;2022-07-30T13:38:52;3.50;;;3.00;;
11279;SDS011;5696;50.928;6.960;2022-07-30T13:41:18;4.15;;;2.60;;
11279;SDS011;5696;50.928;6.960;2022-07-30T13:43:45;3.42;;;2.58;;
11279;SDS011;5696;50.928;6.960;2022-07-30T13:46:10;5.85;;;3.00;;
11279;SDS011;5696;50.928;6.960;2022-07-30T13:48:36;3.08;;;2.63;;
11279;SDS011;5696;50.928;6.960;2022-07-30T13:51:03;3.13;;;2.80;;
11279;SDS011;5696;50.928;6.960;2022-07-30T13:53:29;3.50;;;2.50;;
11279;SDS011;5696;50.928;6.960;2022-07-30T13:55:54;4.28;;;3.00;;
11279;SDS011;5696;50.928;6.960;2022-07-30T13:58:20;5.32;;;2.63;;
11279;SDS011;5696;50.928;6.960;2022-07-30T14:00:46;2.88;;;2.50;;
11279;SDS011;5696;50.928;6.960;2022-07-30T14:03:12;3.53;;;2.65;;
11279;SDS011;5696;50.928;6.960;2022-07-30T14:05:39;3.22;;;2.90;;
11279;SDS011;5696;50.928;6.960;2022-07-30T14:08:05;3.28;;;2.78;;
11279;SDS011;5696;50.928;6.960;2022-07-30T14:10:32;2.78;;;2.50;;
11279;SDS011;5696;50.928;6.960;2022-07-30T14:12:59;3.30;;;2.35;;
11279;SDS011;5696;50.928;6.960;2022-07-30T14:15:27;5.38;;;2.42;;
11279;SDS011;5696;50.928;6.960;2022-07-30T14:17:55;2.95;;;2.55;;
11279;SDS011;5696;50.928;6.960;2022-07-30T14:20:20;2.83;;;2.38;;
11279;SDS011;5696;50.928;6.960;2022-07-30T14:22:46;3.00;;;2.70;;
11279;SDS011;5696;50.928;6.960;2022-07-30T14:25:12;3.22;;;2.95;;
11279;SDS011;5696;50.928;6.960;2022-07-30T14:27:38;4.25;;;2.45;;
11279;SDS011;5696;50.928;6.960;2022-07-30T14:30:05;4.20;;;2.58;;
11279;SDS011;5696;50.928;6.960;2022-07-30T14:32:33;6.13;;;2.63;;
11279;SDS011;5696;50.928;6.960;2022-07-30T14:34:59;3.50;;;2.70;;
11279;SDS011;5696;50.928;6.960;2022-07-30T14:37:25;4.80;;;2.47;;
11279;SDS011;5696;50.928;6.960;2022-07-30T14:39:50;3.80;;;2.35;;
11279;SDS011;5696;50.928;6.960;2022-07-30T14:42:16;4.13;;;2.60;;
11279;SDS011;5696;50.928;6.960;2022-07-30T14:44:42;2.58;;;2.38;;
11279;SDS011;5696;50.928;6.960;2022-07-30T14:47:07;3.20;;;2.17;;
11279;SDS011;5696;50.928;6.960;2022-07-30T14:49:33;2.78;;;2.28;;
11279;SDS011;5696;50.928;6.960;2022-07-30T14:51:59;2.45;;;2.22;;
11279;SDS011;5696;50.928;6.960;2022-07-30T14:54:25;2.28;;;1.90;;
11279;SDS011;5696;50.928;6.960;2022-07-30T14:56:51;2.38;;;1.88;;
11279;SDS011;5696;50.928;6.960;2022-07-30T14:59:18;2.70;;;2.45;;
11279;SDS011;5696;50.928;6.960;2022-07-30T15:01:44;2.63;;;2.30;;
11279;SDS011;5696;50.928;6.960;2022-07-30T15:04:11;2.47;;;1.98;;
11279;SDS011;5696;50.928;6.960;2022-07-30T15:06:37;2.95;;;2.20;;
11279;SDS011;5696;50.928;6.960;2022-07-30T15:09:05;2.28;;;2.10;;
11279;SDS011;5696;50.928;6.960;2022-07-30T15:11:31;3.13;;;2.00;;
11279;SDS011;5696;50.928;6.960;2022-07-30T15:13:56;2.58;;;1.80;;
11279;SDS011;5696;50.928;6.960;2022-07-30T15:16:22;2.05;;;1.80;;
11279;SDS011;5696;50.928;6.960;2022-07-30T15:18:47;2.00;;;1.80;;
11279;SDS011;5696;50.928;6.960;2022-07-30T15:21:13;3.00;;;1.73;;
11279;SDS011;5696;50.928;6.960;2022-07-30T15:23:39;1.70;;;1.60;;
11279;SDS011;5696;50.928;6.960;2022-07-30T15:26:04;2.38;;;1.90;;
11279;SDS011;5696;50.928;6.960;2022-07-30T15:28:30;3.35;;;2.00;;
11279;SDS011;5696;50.928;6.960;2022-07-30T15:30:56;2.05;;;1.85;;
11279;SDS011;5696;50.928;6.960;2022-07-30T15:33:22;2.85;;;1.90;;
11279;SDS011;5696;50.928;6.960;2022-07-30T15:35:47;2.55;;;1.70;;
11279;SDS011;5696;50.928;6.960;2022-07-30T15:38:13;2.03;;;1.60;;
11279;SDS011;5696;50.928;6.960;2022-07-30T15:40:39;3.85;;;1.80;;
11279;SDS011;5696;50.928;6.960;2022-07-30T15:43:06;2.00;;;1.52;;
11279;SDS011;5696;50.928;6.960;2022-07-30T15:45:31;1.83;;;1.73;;
11279;SDS011;5696;50.928;6.960;2022-07-30T15:47:57;3.83;;;1.80;;
11279;SDS011;5696;50.928;6.960;2022-07-30T15:50:23;1.88;;;1.77;;
11279;SDS011;5696;50.928;6.960;2022-07-30T15:52:48;2.30;;;1.83;;
11279;SDS011;5696;50.928;6.960;2022-07-30T15:55:14;2.20;;;2.00;;
11279;SDS011;5696;50.928;6.960;2022-07-30T15:57:40;2.63;;;1.95;;
11279;SDS011;5696;50.928;6.960;2022-07-30T16:00:07;4.50;;;1.80;;
11279;SDS011;5696;50.928;6.960;2022-07-30T16:02:35;1.60;;;1.50;;
11279;SDS011;5696;50.928;6.960;2022-07-30T16:05:01;2.97;;;1.80;;
11279;SDS011;5696;50.928;6.960;2022-07-30T16:07:27;2.60;;;2.20;;
11279;SDS011;5696;50.928;6.960;2022-07-30T16:09:53;2.65;;;1.95;;
11279;SDS011;5696;50.928;6.960;2022-07-30T16:12:18;4.20;;;1.70;;
11279;SDS011;5696;50.928;6.960;2022-07-30T16:14:45;3.53;;;1.80;;
11279;SDS011;5696;50.928;6.960;2022-07-30T16:17:11;3.50;;;2.03;;
11279;SDS011;5696;50.928;6.960;2022-07-30T16:19:38;1.70;;;1.52;;
11279;SDS011;5696;50.928;6.960;2022-07-30T16:22:04;2.88;;;2.03;;
11279;SDS011;5696;50.928;6.960;2022-07-30T16:24:30;1.98;;;1.50;;
11279;SDS011;5696;50.928;6.960;2022-07-30T16:26:55;2.83;;;1.95;;
11279;SDS011;5696;50.928;6.960;2022-07-30T16:29:24;2.58;;;1.60;;
11279;SDS011;5696;50.928;6.960;2022-07-30T16:31:50;2.45;;;2.00;;
11279;SDS011;5696;50.928;6.960;2022-07-30T16:34:15;3.92;;;2.00;;
11279;SDS011;5696;50.928;6.960;2022-07-30T16:36:41;2.53;;;1.75;;
11279;SDS011;5696;50.928;6.960;2022-07-30T16:39:08;3.53;;;2.17;;
11279;SDS011;5696;50.928;6.960;2022-07-30T16:41:33;4.45;;;2.05;;
11279;SDS011;5696;50.928;6.960;2022-07-30T16:44:04;4.95;;;2.30;;
11279;SDS011;5696;50.928;6.960;2022-07-30T16:46:30;1.85;;;1.67;;
11279;SDS011;5696;50.928;6.960;2022-07-30T16:48:55;2.35;;;1.98;;
11279;SDS011;5696;50.928;6.960;2022-07-30T16:51:21;2.50;;;1.80;;
11279;SDS011;5696;50.928;6.960;2022-07-30T16:53:46;4.40;;;2.08;;
11279;SDS011;5696;50.928;6.960;2022-07-30T16:56:15;4.63;;;2.47;;
11279;SDS011;5696;50.928;6.960;2022-07-30T16:58:41;3.63;;;2.03;;
11279;SDS011;5696;50.928;6.960;2022-07-30T17:01:06;2.58;;;2.17;;
11279;SDS011;5696;50.928;6.960;2022-07-30T17:03:32;2.65;;;1.88;;
11279;SDS011;5696;50.928;6.960;2022-07-30T17:05:58;3.60;;;2.33;;
11279;SDS011;5696;50.928;6.960;2022-07-30T17:08:24;4.22;;;2.00;;
11279;SDS011;5696;50.928;6.960;2022-07-30T17:10:50;3.50;;;2.08;;
11279;SDS011;5696;50.928;6.960;2022-07-30T17:13:16;2.95;;;2.58;;
11279;SDS011;5696;50.928;6.960;2022-07-30T17:15:42;5.65;;;2.55;;
11279;SDS011;5696;50.928;6.960;2022-07-30T17:18:07;2.72;;;2.00;;
11279;SDS011;5696;50.928;6.960;2022-07-30T17:20:33;2.13;;;2.03;;
11279;SDS011;5696;50.928;6.960;2022-07-30T17:22:59;2.55;;;2.20;;
11279;SDS011;5696;50.928;6.960;2022-07-30T17:25:25;4.97;;;2.17;;
11279;SDS011;5696;50.928;6.960;2022-07-30T17:27:57;2.58;;;1.98;;
11279;SDS011;5696;50.928;6.960;2022-07-30T17:30:24;2.83;;;2.15;;
11279;SDS011;5696;50.928;6.960;2022-07-30T17:32:50;2.70;;;2.17;;
11279;SDS011;5696;50.928;6.960;2022-07-30T17:35:16;3.97;;;2.20;;
11279;SDS011;5696;50.928;6.960;2022-07-30T17:37:42;2.55;;;2.22;;
11279;SDS011;5696;50.928;6.960;2022-07-30T17:40:08;2.53;;;1.92;;
11279;SDS011;5696;50.928;6.960;2022-07-30T17:42:36;3.20;;;1.80;;
11279;SDS011;5696;50.928;6.960;2022-07-30T17:45:03;4.05;;;2.15;;
11279;SDS011;5696;50.928;6.960;2022-07-30T17:47:32;2.28;;;2.17;;
11279;SDS011;5696;50.928;6.960;2022-07-30T17:49:58;3.50;;;2.30;;
11279;SDS011;5696;50.928;6.960;2022-07-30T17:52:24;4.50;;;2.80;;
11279;SDS011;5696;50.928;6.960;2022-07-30T17:54:49;2.28;;;1.90;;
11279;SDS011;5696;50.928;6.960;2022-07-30T17:57:15;7.55;;;2.30;;
11279;SDS011;5696;50.928;6.960;2022-07-30T17:59:41;2.50;;;2.30;;
11279;SDS011;5696;50.928;6.960;2022-07-30T18:02:07;3.28;;;2.20;;
11279;SDS011;5696;50.928;6.960;2022-07-30T18:04:33;2.78;;;1.85;;
11279;SDS011;5696;50.928;6.960;2022-07-30T18:06:59;4.28;;;2.20;;
11279;SDS011;5696;50.928;6.960;2022-07-30T18:09:25;3.03;;;1.90;;
11279;SDS011;5696;50.928;6.960;2022-07-30T18:11:51;2.60;;;2.15;;
11279;SDS011;5696;50.928;6.960;2022-07-30T18:14:17;2.15;;;1.95;;
11279;SDS011;5696;50.928;6.960;2022-07-30T18:16:42;4.22;;;2.60;;
11279;SDS011;5696;50.928;6.960;2022-07-30T18:19:08;4.78;;;2.15;;
11279;SDS011;5696;50.928;6.960;2022-07-30T18:21:34;3.10;;;2.33;;
11279;SDS011;5696;50.928;6.960;2022-07-30T18:24:00;4.13;;;3.40;;
11279;SDS011;5696;50.928;6.960;2022-07-30T18:26:25;3.30;;;2.60;;
11279;SDS011;5696;50.928;6.960;2022-07-30T18:28:52;4.50;;;2.13;;
11279;SDS011;5696;50.928;6.960;2022-07-30T18:31:19;3.50;;;2.20;;
11279;SDS011;5696;50.928;6.960;2022-07-30T18:33:44;3.70;;;2.25;;
11279;SDS011;5696;50.928;6.960;2022-07-30T18:36:11;4.78;;;2.30;;
11279;SDS011;5696;50.928;6.960;2022-07-30T18:38:37;3.95;;;2.08;;
11279;SDS011;5696;50.928;6.960;2022-07-30T18:41:02;2.38;;;2.10;;
11279;SDS011;5696;50.928;6.960;2022-07-30T18:43:29;3.25;;;2.40;;
11279;SDS011;5696;50.928;6.960;2022-07-30T18:45:55;2.95;;;2.05;;
11279;SDS011;5696;50.928;6.960;2022-07-30T18:48:22;2.47;;;1.95;;
11279;SDS011;5696;50.928;6.960;2022-07-30T18:50:49;2.40;;;2.10;;
11279;SDS011;5696;50.928;6.960;2022-07-30T18:53:16;3.53;;;2.40;;
11279;SDS011;5696;50.928;6.960;2022-07-30T18:55:42;2.40;;;2.30;;
11279;SDS011;5696;50.928;6.960;2022-07-30T18:58:09;3.22;;;2.40;;
11279;SDS011;5696;50.928;6.960;2022-07-30T19:00:35;2.75;;;2.30;;
11279;SDS011;5696;50.928;6.960;2022-07-30T19:03:03;4.00;;;2.72;;
11279;SDS011;5696;50.928;6.960;2022-07-30T19:05:29;2.38;;;2.10;;
11279;SDS011;5696;50.928;6.960;2022-07-30T19:07:55;4.43;;;2.25;;
11279;SDS011;5696;50.928;6.960;2022-07-30T19:10:27;2.58;;;2.40;;
11279;SDS011;5696;50.928;6.960;2022-07-30T19:12:53;2.40;;;2.03;;
11279;SDS011;5696;50.928;6.960;2022-07-30T19:15:22;3.22;;;2.65;;
11279;SDS011;5696;50.928;6.960;2022-07-30T19:17:47;2.72;;;2.20;;
11279;SDS011;5696;50.928;6.960;2022-07-30T19:20:15;2.67;;;2.25;;
11279;SDS011;5696;50.928;6.960;2022-07-30T19:22:41;3.58;;;2.40;;
11279;SDS011;5696;50.928;6.960;2022-07-30T19:25:08;3.72;;;2.13;;
11279;SDS011;5696;50.928;6.960;2022-07-30T19:27:34;4.05;;;3.67;;
11279;SDS011;5696;50.928;6.960;2022-07-30T19:30:00;2.70;;;2.30;;
11279;SDS011;5696;50.928;6.960;2022-07-30T19:32:25;4.57;;;3.25;;
11279;SDS011;5696;50.928;6.960;2022-07-30T19:34:51;2.53;;;2.33;;
11279;SDS011;5696;50.928;6.960;2022-07-30T19:37:18;6.45;;;2.95;;
11279;SDS011;5696;50.928;6.960;2022-07-30T19:39:44;5.22;;;2.65;;
11279;SDS011;5696;50.928;6.960;2022-07-30T19:42:10;2.40;;;2.20;;
11279;SDS011;5696;50.928;6.960;2022-07-30T19:44:36;4.20;;;3.08;;
11279;SDS011;5696;50.928;6.960;2022-07-30T19:47:02;5.45;;;2.95;;
11279;SDS011;5696;50.928;6.960;2022-07-30T19:49:28;3.05;;;2.80;;
11279;SDS011;5696;50.928;6.960;2022-07-30T19:51:58;3.08;;;2.15;;
11279;SDS011;5696;50.928;6.960;2022-07-30T19:54:23;2.40;;;2.22;;
11279;SDS011;5696;50.928;6.960;2022-07-30T19:56:49;3.00;;;2.67;;
11279;SDS011;5696;50.928;6.960;2022-07-30T19:59:15;5.22;;;3.08;;
11279;SDS011;5696;50.928;6.960;2022-07-30T20:01:43;4.90;;;2.50;;
11279;SDS011;5696;50.928;6.960;2022-07-30T20:04:09;3.47;;;2.60;;
11279;SDS011;5696;50.928;6.960;2022-07-30T20:06:35;3.35;;;2.70;;
11279;SDS011;5696;50.928;6.960;2022-07-30T20:09:02;2.75;;;2.50;;
11279;SDS011;5696;50.928;6.960;2022-07-30T20:11:28;3.15;;;2.78;;
11279;SDS011;5696;50.928;6.960;2022-07-30T20:13:54;3.72;;;2.40;;
11279;SDS011;5696;50.928;6.960;2022-07-30T20:16:20;3.45;;;2.72;;
11279;SDS011;5696;50.928;6.960;2022-07-30T20:18:45;2.78;;;2.33;;
11279;SDS011;5696;50.928;6.960;2022-07-30T20:21:11;4.38;;;3.00;;
11279;SDS011;5696;50.928;6.960;2022-07-30T20:23:38;2.80;;;2.60;;
11279;SDS011;5696;50.928;6.960;2022-07-30T20:26:04;2.83;;;2.50;;
11279;SDS011;5696;50.928;6.960;2022-07-30T20:28:33;3.35;;;2.40;;
11279;SDS011;5696;50.928;6.960;2022-07-30T20:30:59;2.65;;;2.45;;
11279;SDS011;5696;50.928;6.960;2022-07-30T20:33:25;3.05;;;2.75;;
11279;SDS011;5696;50.928;6.960;2022-07-30T20:35:50;4.88;;;3.10;;
11279;SDS011;5696;50.928;6.960;2022-07-30T20:38:16;6.13;;;3.22;;
11279;SDS011;5696;50.928;6.960;2022-07-30T20:40:42;2.95;;;2.50;;
11279;SDS011;5696;50.928;6.960;2022-07-30T20:43:17;4.15;;;2.83;;
11279;SDS011;5696;50.928;6.960;2022-07-30T20:45:43;5.57;;;2.97;;
11279;SDS011;5696;50.928;6.960;2022-07-30T20:48:10;3.17;;;2.58;;
11279;SDS011;5696;50.928;6.960;2022-07-30T20:50:35;4.63;;;3.15;;
11279;SDS011;5696;50.928;6.960;2022-07-30T20:53:03;3.47;;;3.17;;
11279;SDS011;5696;50.928;6.960;2022-07-30T20:55:29;4.05;;;3.15;;
11279;SDS011;5696;50.928;6.960;2022-07-30T20:57:55;4.03;;;3.17;;
11279;SDS011;5696;50.928;6.960;2022-07-30T21:00:32;5.47;;;3.00;;
11279;SDS011;5696;50.928;6.960;2022-07-30T21:02:58;4.40;;;2.80;;
11279;SDS011;5696;50.928;6.960;2022-07-30T21:05:24;3.72;;;3.20;;
11279;SDS011;5696;50.928;6.960;2022-07-30T21:07:50;5.15;;;3.10;;
11279;SDS011;5696;50.928;6.960;2022-07-30T21:10:16;3.78;;;2.67;;
11279;SDS011;5696;50.928;6.960;2022-07-30T21:12:45;2.65;;;2.47;;